createdAt,value
2023-02-17T00:00:05.488Z,15.50
2023-02-17T00:02:33.431Z,16.00
2023-02-17T00:05:01.129Z,13.25
2023-02-17T00:07:32.007Z,21.00
2023-02-17T00:09:59.647Z,13.80
2023-02-17T00:12:27.297Z,19.80
2023-02-17T00:14:55.159Z,17.40
2023-02-17T00:17:22.857Z,18.00
2023-02-17T00:19:50.841Z,13.50
2023-02-17T00:22:18.419Z,20.00
2023-02-17T00:24:46.085Z,16.50
2023-02-17T00:27:13.886Z,18.25
2023-02-17T00:29:41.936Z,15.50
2023-02-17T00:32:10.891Z,9.00
2023-02-17T00:34:38.598Z,19.75
2023-02-17T00:37:06.304Z,15.00
2023-02-17T00:39:34.350Z,15.75
2023-02-17T00:42:02.018Z,16.00
2023-02-17T00:44:29.724Z,12.25
2023-02-17T00:46:57.476Z,12.50
2023-02-17T00:49:25.353Z,16.50
2023-02-17T00:51:54.656Z,21.25
2023-02-17T00:54:22.303Z,19.00
2023-02-17T00:56:50.288Z,15.00
2023-02-17T00:59:17.905Z,11.00
2023-02-17T01:01:45.624Z,19.00
2023-02-17T01:04:13.286Z,15.50
2023-02-17T01:06:40.918Z,19.50
2023-02-17T01:09:08.949Z,9.75
2023-02-17T01:11:36.609Z,17.50
2023-02-17T01:14:06.373Z,14.00
2023-02-17T01:16:35.389Z,14.00
2023-02-17T01:19:03.006Z,19.00
2023-02-17T01:21:30.608Z,12.75
2023-02-17T01:23:58.321Z,11.25
2023-02-17T01:26:25.910Z,16.50
2023-02-17T01:28:53.530Z,18.25
2023-02-17T01:31:21.256Z,14.50
2023-02-17T01:33:48.906Z,16.50
2023-02-17T01:36:16.540Z,17.00
2023-02-17T01:38:44.246Z,18.75
2023-02-17T01:41:11.922Z,15.25
2023-02-17T01:43:39.543Z,14.50
2023-02-17T01:46:07.740Z,15.75
2023-02-17T01:48:35.463Z,12.50
2023-02-17T01:51:03.083Z,10.50
2023-02-17T01:53:30.744Z,17.25
2023-02-17T01:55:58.376Z,13.50
2023-02-17T01:58:26.740Z,9.50
2023-02-17T02:00:54.431Z,10.00
2023-02-17T02:03:22.006Z,14.00
2023-02-17T02:05:49.772Z,15.25
2023-02-17T02:08:17.486Z,11.00
2023-02-17T02:10:45.481Z,11.50
2023-02-17T02:13:13.104Z,11.50
2023-02-17T02:15:40.747Z,15.25
2023-02-17T02:18:08.737Z,15.25
2023-02-17T02:20:36.629Z,6.50
2023-02-17T02:23:04.610Z,14.50
2023-02-17T02:25:32.238Z,14.50
2023-02-17T02:27:59.821Z,12.75
2023-02-17T02:30:27.713Z,10.00
2023-02-17T02:32:55.351Z,15.25
2023-02-17T02:35:23.346Z,14.50
2023-02-17T02:37:50.954Z,12.50
2023-02-17T02:40:18.553Z,16.75
2023-02-17T02:42:47.831Z,12.00
2023-02-17T02:45:15.455Z,12.00
2023-02-17T02:47:43.465Z,13.00
2023-02-17T02:50:11.082Z,10.00
2023-02-17T02:52:38.713Z,17.50
2023-02-17T02:55:06.529Z,14.75
2023-02-17T02:57:34.136Z,13.75
2023-02-17T03:00:02.131Z,7.00
2023-02-17T03:02:29.766Z,11.00
2023-02-17T03:04:57.388Z,15.00
2023-02-17T03:07:25.026Z,10.00
2023-02-17T03:09:52.654Z,12.25
2023-02-17T03:12:20.253Z,18.50
2023-02-17T03:14:47.857Z,12.00
2023-02-17T03:17:15.431Z,13.50
2023-02-17T03:19:45.624Z,18.25
2023-02-17T03:22:13.205Z,12.00
2023-02-17T03:24:40.782Z,12.25
2023-02-17T03:27:08.716Z,14.00
2023-02-17T03:29:36.339Z,14.25
2023-02-17T03:32:04.099Z,16.00
2023-02-17T03:34:31.648Z,13.00
2023-02-17T03:36:59.601Z,9.75
2023-02-17T03:39:27.615Z,9.00
2023-02-17T03:41:55.187Z,12.25
2023-02-17T03:44:22.809Z,12.75
2023-02-17T03:46:50.535Z,12.50
2023-02-17T03:49:18.964Z,13.00
2023-02-17T03:51:46.546Z,10.00
2023-02-17T03:54:14.084Z,13.00
2023-02-17T03:56:41.810Z,9.50
2023-02-17T03:59:09.386Z,12.00
2023-02-17T04:01:37.342Z,7.00
2023-02-17T04:04:04.960Z,12.00
2023-02-17T04:06:32.561Z,10.00
2023-02-17T04:09:00.186Z,13.00
2023-02-17T04:11:28.148Z,9.00
2023-02-17T04:13:56.087Z,5.00
2023-02-17T04:16:23.629Z,15.75
2023-02-17T04:18:51.172Z,11.50
2023-02-17T04:21:18.763Z,4.50
2023-02-17T04:23:46.306Z,10.00
2023-02-17T04:26:14.259Z,10.00
2023-02-17T04:28:41.897Z,11.50
2023-02-17T04:31:09.884Z,13.50
2023-02-17T04:33:38.120Z,5.75
2023-02-17T04:36:06.056Z,12.50
2023-02-17T04:38:34.306Z,10.50
2023-02-17T04:41:01.904Z,1.00
2023-02-17T04:43:29.536Z,6.25
2023-02-17T04:45:57.157Z,13.50
2023-02-17T04:48:24.757Z,11.50
2023-02-17T04:50:52.755Z,9.75
2023-02-17T04:53:20.328Z,9.75
2023-02-17T04:55:47.902Z,9.75
2023-02-17T04:58:15.535Z,14.50
2023-02-17T05:00:43.100Z,11.00
2023-02-17T05:03:11.048Z,13.00
2023-02-17T05:05:38.717Z,12.00
2023-02-17T05:08:06.255Z,9.75
2023-02-17T05:10:33.817Z,8.00
2023-02-17T05:13:01.488Z,10.00
2023-02-17T05:15:29.907Z,12.75
2023-02-17T05:17:57.515Z,9.75
2023-02-17T05:20:25.116Z,13.00
2023-02-17T05:22:52.731Z,12.50
2023-02-17T05:25:20.324Z,12.50
2023-02-17T05:27:48.275Z,8.50
2023-02-17T05:30:15.908Z,13.00
2023-02-17T05:32:43.513Z,11.25
2023-02-17T05:35:11.165Z,11.75
2023-02-17T05:37:39.227Z,11.00
2023-02-17T05:40:07.180Z,12.50
2023-02-17T05:42:34.822Z,9.75
2023-02-17T05:45:02.420Z,12.50
2023-02-17T05:47:30.293Z,10.25
2023-02-17T05:49:57.993Z,13.00
2023-02-17T05:52:25.936Z,9.00
2023-02-17T05:54:53.572Z,8.00
2023-02-17T05:57:21.348Z,11.00
2023-02-17T05:59:50.801Z,13.00
2023-02-17T06:02:18.400Z,11.00
2023-02-17T06:04:46.547Z,12.00
2023-02-17T06:07:14.287Z,10.75
2023-02-17T06:09:41.919Z,3.25
2023-02-17T06:12:10.102Z,4.50
2023-02-17T06:14:37.745Z,9.00
2023-02-17T06:17:05.711Z,11.50
2023-02-17T06:19:33.498Z,8.00
2023-02-17T06:22:01.469Z,9.00
2023-02-17T06:24:29.291Z,10.00
2023-02-17T06:26:56.985Z,9.50
2023-02-17T06:29:24.933Z,3.00
2023-02-17T06:31:52.617Z,9.33
2023-02-17T06:34:20.408Z,11.00
2023-02-17T06:36:48.357Z,13.00
2023-02-17T06:39:15.978Z,12.50
2023-02-17T06:41:44.098Z,13.00
2023-02-17T06:44:12.077Z,18.00
2023-02-17T06:46:39.706Z,12.50
2023-02-17T06:49:07.392Z,10.00
2023-02-17T06:51:35.071Z,11.50
2023-02-17T06:54:02.755Z,10.00
2023-02-17T06:56:30.557Z,15.50
2023-02-17T06:58:58.208Z,11.50
2023-02-17T07:01:26.568Z,12.00
2023-02-17T07:03:54.245Z,12.00
2023-02-17T07:06:23.354Z,10.00
2023-02-17T07:08:52.461Z,13.50
2023-02-17T07:11:20.172Z,15.25
2023-02-17T07:13:47.885Z,20.25
2023-02-17T07:16:15.599Z,14.00
2023-02-17T07:18:43.707Z,11.50
2023-02-17T07:21:11.354Z,15.25
2023-02-17T07:23:39.695Z,18.00
2023-02-17T07:26:08.658Z,12.50
2023-02-17T07:28:36.767Z,17.00
2023-02-17T07:31:04.941Z,13.00
2023-02-17T07:33:32.822Z,15.50
2023-02-17T07:36:00.573Z,12.00
2023-02-17T07:38:28.617Z,12.50
2023-02-17T07:40:56.413Z,9.50
2023-02-17T07:43:24.502Z,10.50
2023-02-17T07:45:52.201Z,15.25
2023-02-17T07:48:20.034Z,12.25
2023-02-17T07:50:49.177Z,11.50
2023-02-17T07:53:16.852Z,8.50
2023-02-17T07:55:44.943Z,13.25
2023-02-17T07:58:12.631Z,9.50
2023-02-17T08:00:40.479Z,12.00
2023-02-17T08:03:11.067Z,11.00
2023-02-17T08:05:38.857Z,11.50
2023-02-17T08:08:24.822Z,4.00
2023-02-17T08:11:10.382Z,11.00
2023-02-17T08:13:38.280Z,11.50
2023-02-17T08:16:06.257Z,11.00
2023-02-17T08:18:36.764Z,11.50
2023-02-17T08:21:04.954Z,7.50
2023-02-17T08:23:32.880Z,8.50
2023-02-17T08:26:00.830Z,10.00
2023-02-17T08:28:28.847Z,11.50
2023-02-17T08:30:57.281Z,8.00
2023-02-17T08:33:24.966Z,10.00
2023-02-17T08:35:52.918Z,12.25
2023-02-17T08:38:20.794Z,15.50
2023-02-17T08:40:48.566Z,11.00
2023-02-17T08:43:16.964Z,10.50
2023-02-17T08:45:44.842Z,12.75
2023-02-17T08:48:12.670Z,10.75
2023-02-17T08:50:40.520Z,7.50
2023-02-17T08:53:08.725Z,14.50
2023-02-17T08:55:48.490Z,12.00
2023-02-17T08:58:17.216Z,7.00
2023-02-17T09:00:45.017Z,12.00
2023-02-17T09:03:12.892Z,12.50
2023-02-17T09:05:41.383Z,11.00
2023-02-17T09:08:09.363Z,10.50
2023-02-17T09:10:37.182Z,11.00
2023-02-17T09:13:05.253Z,10.50
2023-02-17T09:15:33.102Z,12.50
2023-02-17T09:18:01.297Z,3.00
2023-02-17T09:20:29.208Z,5.00
2023-02-17T09:22:57.085Z,8.50
2023-02-17T09:25:25.063Z,7.00
2023-02-17T09:27:53.020Z,10.00
2023-02-17T09:30:21.506Z,8.00
2023-02-17T09:32:49.254Z,8.00
2023-02-17T09:35:17.221Z,9.00
2023-02-17T09:37:45.104Z,8.00
2023-02-17T09:40:12.993Z,6.75
2023-02-17T09:42:41.732Z,7.00
2023-02-17T09:45:11.887Z,9.50
2023-02-17T09:47:40.891Z,6.75
2023-02-17T09:50:08.748Z,9.75
2023-02-17T09:52:37.430Z,6.50
2023-02-17T09:55:05.808Z,8.00
2023-02-17T09:57:34.064Z,6.00
2023-02-17T10:00:01.923Z,3.75
2023-02-17T10:02:30.124Z,6.50
2023-02-17T10:04:58.008Z,6.00
2023-02-17T10:07:26.181Z,6.25
2023-02-17T10:09:54.264Z,6.50
2023-02-17T10:12:22.126Z,6.00
2023-02-17T10:14:50.066Z,9.00
2023-02-17T10:17:18.419Z,7.00
2023-02-17T10:19:46.823Z,4.50
2023-02-17T10:22:14.558Z,3.50
2023-02-17T10:24:42.471Z,3.75
2023-02-17T10:27:10.604Z,6.00
2023-02-17T10:29:38.450Z,6.25
2023-02-17T10:32:06.892Z,6.00
2023-02-17T10:34:34.767Z,4.00
2023-02-17T10:37:02.642Z,5.50
2023-02-17T10:39:31.721Z,5.50
2023-02-17T10:41:59.644Z,5.00
2023-02-17T10:44:28.196Z,7.00
2023-02-17T10:46:56.178Z,6.00
2023-02-17T10:49:24.071Z,6.25
2023-02-17T10:51:52.137Z,7.00
2023-02-17T10:54:20.087Z,7.00
2023-02-17T10:56:47.854Z,7.00
2023-02-17T10:59:15.715Z,6.00
2023-02-17T11:01:43.671Z,6.50
2023-02-17T11:04:13.867Z,6.00
2023-02-17T11:06:41.963Z,7.00
2023-02-17T11:09:12.586Z,4.00
2023-02-17T11:11:40.468Z,6.25
2023-02-17T11:14:08.301Z,6.25
2023-02-17T11:16:36.464Z,3.00
2023-02-17T11:19:04.278Z,7.50
2023-02-17T11:21:33.825Z,4.50
2023-02-17T11:24:02.488Z,3.75
2023-02-17T11:26:30.402Z,3.00
2023-02-17T11:28:58.441Z,4.00
2023-02-17T11:31:26.493Z,4.00
2023-02-17T11:33:56.865Z,5.00
2023-02-17T11:36:25.052Z,3.50
2023-02-17T11:38:53.102Z,4.00
2023-02-17T11:41:21.077Z,5.50
2023-02-17T11:43:49.766Z,5.00
2023-02-17T11:46:18.316Z,3.50
2023-02-17T11:48:46.228Z,4.50
2023-02-17T11:51:14.027Z,4.00
2023-02-17T11:53:42.261Z,6.50
2023-02-17T11:56:10.164Z,3.50
2023-02-17T11:58:38.556Z,3.25
2023-02-17T12:01:06.615Z,3.25
2023-02-17T12:03:36.691Z,3.25
2023-02-17T12:06:05.318Z,3.50
2023-02-17T12:08:33.437Z,3.00
2023-02-17T12:11:01.183Z,4.00
2023-02-17T12:13:29.217Z,3.50
2023-02-17T12:15:57.598Z,1.00
2023-02-17T12:18:25.454Z,4.00
2023-02-17T12:20:53.326Z,3.00
2023-02-17T12:23:21.707Z,5.50
2023-02-17T12:25:49.614Z,3.00
2023-02-17T12:28:17.886Z,4.20
2023-02-17T12:30:46.526Z,3.75
2023-02-17T12:33:14.483Z,3.50
2023-02-17T12:35:42.278Z,1.40
2023-02-17T12:38:10.353Z,3.00
2023-02-17T12:40:38.213Z,2.50
2023-02-17T12:43:06.117Z,3.25
2023-02-17T12:45:34.004Z,4.50
2023-02-17T12:48:02.303Z,0.00
2023-02-17T12:50:30.487Z,4.00
2023-02-17T12:52:58.451Z,3.50
2023-02-17T12:55:27.453Z,3.75
2023-02-17T12:57:58.405Z,5.00
2023-02-17T13:00:26.946Z,3.25
2023-02-17T13:02:54.796Z,3.00
2023-02-17T13:05:22.636Z,3.00
2023-02-17T13:07:51.581Z,3.25
2023-02-17T13:10:19.679Z,4.00
2023-02-17T13:12:48.010Z,4.00
2023-02-17T13:15:15.975Z,3.00
2023-02-17T13:17:43.737Z,3.00
2023-02-17T13:20:11.532Z,3.00
2023-02-17T13:22:39.500Z,3.00
2023-02-17T13:25:07.686Z,2.50
2023-02-17T13:27:35.581Z,4.50
2023-02-17T13:30:03.699Z,3.00
2023-02-17T13:32:31.923Z,3.75
2023-02-17T13:34:59.774Z,1.50
2023-02-17T13:37:29.290Z,1.00
2023-02-17T13:39:57.249Z,3.00
2023-02-17T13:42:25.080Z,3.00
2023-02-17T13:44:53.203Z,3.00
2023-02-17T13:47:21.107Z,2.50
2023-02-17T13:49:50.881Z,5.00
2023-02-17T13:52:18.989Z,1.00
2023-02-17T13:54:46.937Z,6.00
2023-02-17T13:57:15.304Z,3.25
2023-02-17T13:59:43.331Z,3.75
2023-02-17T14:02:11.435Z,3.00
2023-02-17T14:04:39.488Z,1.00
2023-02-17T14:07:07.547Z,3.00
2023-02-17T14:09:35.720Z,3.00
2023-02-17T14:12:03.545Z,3.00
2023-02-17T14:14:31.786Z,1.00
2023-02-17T14:17:00.041Z,2.50
2023-02-17T14:19:27.773Z,3.50
2023-02-17T14:21:56.255Z,3.00
2023-02-17T14:24:24.141Z,3.00
2023-02-17T14:26:54.092Z,2.00
2023-02-17T14:29:22.052Z,6.25
2023-02-17T14:31:50.159Z,4.50
2023-02-17T14:34:18.110Z,4.00
2023-02-17T14:36:46.231Z,3.00
2023-02-17T14:39:14.877Z,5.25
2023-02-17T14:41:42.771Z,5.50
2023-02-17T14:44:10.700Z,6.75
2023-02-17T14:46:38.814Z,5.00
2023-02-17T14:49:06.775Z,7.00
2023-02-17T14:51:35.304Z,6.00
2023-02-17T14:54:03.149Z,7.00
2023-02-17T14:56:31.121Z,6.00
2023-02-17T14:58:59.474Z,6.00
2023-02-17T15:01:27.441Z,4.50
2023-02-17T15:03:55.612Z,5.00
2023-02-17T15:06:23.738Z,8.00
2023-02-17T15:08:51.666Z,3.75
2023-02-17T15:11:19.644Z,3.00
2023-02-17T15:13:47.554Z,6.00
2023-02-17T15:16:16.849Z,8.50
2023-02-17T15:18:44.791Z,2.00
2023-02-17T15:21:13.487Z,6.00
2023-02-17T15:23:41.849Z,6.75
2023-02-17T15:26:09.773Z,9.50
2023-02-17T15:28:38.275Z,6.00
2023-02-17T15:31:06.266Z,0.00
2023-02-17T15:33:34.144Z,8.50
2023-02-17T15:36:02.530Z,5.50
2023-02-17T15:38:30.261Z,9.00
2023-02-17T15:40:59.364Z,4.50
2023-02-17T15:43:27.749Z,7.00
2023-02-17T15:45:55.679Z,5.00
2023-02-17T15:48:23.769Z,6.50
2023-02-17T15:50:51.719Z,6.50
2023-02-17T15:53:19.730Z,5.00
2023-02-17T15:55:47.561Z,8.00
2023-02-17T15:58:17.043Z,6.50
2023-02-17T16:00:46.215Z,3.75
2023-02-17T16:03:14.135Z,5.00
2023-02-17T16:05:42.654Z,6.00
2023-02-17T16:08:10.505Z,5.50
2023-02-17T16:10:39.811Z,8.00
2023-02-17T16:13:08.427Z,5.00
2023-02-17T16:15:37.619Z,4.50
2023-02-17T16:18:05.544Z,3.00
2023-02-17T16:20:34.942Z,4.00
2023-02-17T16:23:03.171Z,2.50
2023-02-17T16:25:31.373Z,6.00
2023-02-17T16:27:59.582Z,6.50
2023-02-17T16:30:27.872Z,4.00
2023-02-17T16:32:55.826Z,3.25
2023-02-17T16:35:23.778Z,1.00
2023-02-17T16:37:51.557Z,4.00
2023-02-17T16:40:19.392Z,4.00
2023-02-17T16:42:47.371Z,5.00
2023-02-17T16:45:15.173Z,7.50
2023-02-17T16:47:43.165Z,9.00
2023-02-17T16:50:11.876Z,9.75
2023-02-17T16:52:39.810Z,11.75
2023-02-17T16:55:07.743Z,12.50
2023-02-17T16:57:35.798Z,12.00
2023-02-17T17:00:04.741Z,9.75
2023-02-17T17:02:32.739Z,9.00
2023-02-17T17:05:00.816Z,9.00
2023-02-17T17:07:28.995Z,9.50
2023-02-17T17:10:15.512Z,9.00
2023-02-17T17:12:44.737Z,4.25
2023-02-17T17:15:12.678Z,10.50
2023-02-17T17:17:40.674Z,7.25
2023-02-17T17:20:09.119Z,9.00
2023-02-17T17:22:37.055Z,10.75
2023-02-17T17:25:05.100Z,5.75
2023-02-17T17:27:33.056Z,7.50
2023-02-17T17:30:01.131Z,7.50
2023-02-17T17:32:29.173Z,8.50
2023-02-17T17:34:57.303Z,6.50
2023-02-17T17:37:25.438Z,7.50
2023-02-17T17:39:53.470Z,3.00
2023-02-17T17:42:21.901Z,6.75
2023-02-17T17:44:49.807Z,8.50
2023-02-17T17:47:24.766Z,4.00
2023-02-17T17:49:57.440Z,6.25
2023-02-17T17:52:26.058Z,7.00
2023-02-17T17:54:54.027Z,8.00
2023-02-17T17:57:22.857Z,7.50
2023-02-17T17:59:50.710Z,9.50
2023-02-17T18:02:18.765Z,7.50
2023-02-17T18:04:47.255Z,7.50
2023-02-17T18:07:15.235Z,6.25
2023-02-17T18:09:43.110Z,12.75
2023-02-17T18:12:11.133Z,9.00
2023-02-17T18:14:41.332Z,8.00
2023-02-17T18:17:09.811Z,7.00
2023-02-17T18:19:37.906Z,7.50
2023-02-17T18:22:05.826Z,10.50
2023-02-17T18:24:33.815Z,11.00
2023-02-17T18:27:01.846Z,11.00
2023-02-17T18:29:30.303Z,8.75
2023-02-17T18:31:59.405Z,9.50
2023-02-17T18:34:27.670Z,9.50
2023-02-17T18:36:55.855Z,9.75
2023-02-17T18:39:23.663Z,10.00
2023-02-17T18:41:52.485Z,11.50
2023-02-17T18:44:20.335Z,12.00
2023-02-17T18:46:48.282Z,13.00
2023-02-17T18:49:16.421Z,9.50
2023-02-17T18:51:44.573Z,13.50
2023-02-17T18:54:13.106Z,12.00
2023-02-17T18:56:41.190Z,10.75
2023-02-17T18:59:09.683Z,14.00
2023-02-17T19:01:39.445Z,14.50
2023-02-17T19:04:07.556Z,11.00
2023-02-17T19:06:36.038Z,10.00
2023-02-17T19:09:04.568Z,11.25
2023-02-17T19:11:32.508Z,7.00
2023-02-17T19:14:00.293Z,12.50
2023-02-17T19:16:28.715Z,11.50
2023-02-17T19:18:57.193Z,12.00
2023-02-17T19:21:25.685Z,11.75
2023-02-17T19:23:53.654Z,13.00
2023-02-17T19:26:21.640Z,15.00
2023-02-17T19:28:49.746Z,13.00
2023-02-17T19:31:17.984Z,8.50
2023-02-17T19:33:46.146Z,12.25
2023-02-17T19:36:14.184Z,13.00
2023-02-17T19:38:41.974Z,12.00
2023-02-17T19:41:10.388Z,7.00
2023-02-17T19:43:39.076Z,3.25
2023-02-17T19:46:07.625Z,8.50
2023-02-17T19:48:35.887Z,12.50
2023-02-17T19:51:03.742Z,10.75
2023-02-17T19:53:33.405Z,10.50
2023-02-17T19:56:01.838Z,6.00
2023-02-17T19:58:29.705Z,10.00
2023-02-17T20:00:57.678Z,9.75
2023-02-17T20:03:25.654Z,12.50
2023-02-17T20:05:54.019Z,10.00
2023-02-17T20:08:22.366Z,11.00
2023-02-17T20:10:50.327Z,9.00
2023-02-17T20:13:18.208Z,9.25
2023-02-17T20:15:46.147Z,11.50
2023-02-17T20:18:14.563Z,6.75
2023-02-17T20:20:46.876Z,11.00
2023-02-17T20:23:14.874Z,14.75
2023-02-17T20:25:42.799Z,13.00
2023-02-17T20:28:11.235Z,12.25
2023-02-17T20:30:39.719Z,7.00
2023-02-17T20:33:08.021Z,13.50
2023-02-17T20:35:37.121Z,12.00
2023-02-17T20:38:05.375Z,14.50
2023-02-17T20:40:33.361Z,14.50
2023-02-17T20:43:01.734Z,10.50
2023-02-17T20:45:30.122Z,11.50
2023-02-17T20:47:58.067Z,12.00
2023-02-17T20:50:26.419Z,10.00
2023-02-17T20:52:54.221Z,13.00
2023-02-17T20:55:22.556Z,11.50
2023-02-17T20:57:50.835Z,12.00
2023-02-17T21:00:18.778Z,15.50
2023-02-17T21:02:47.035Z,12.25
2023-02-17T21:05:14.855Z,9.75
2023-02-17T21:07:42.959Z,10.00
2023-02-17T21:10:11.285Z,13.50
2023-02-17T21:12:39.514Z,12.00
2023-02-17T21:15:07.494Z,15.00
2023-02-17T21:17:35.398Z,12.25
2023-02-17T21:20:04.184Z,13.25
2023-02-17T21:22:32.060Z,12.75
2023-02-17T21:24:59.939Z,16.00
2023-02-17T21:27:27.799Z,12.00
2023-02-17T21:29:55.785Z,12.00
2023-02-17T21:32:23.906Z,15.50
2023-02-17T21:34:52.302Z,13.00
2023-02-17T21:37:20.241Z,11.00
2023-02-17T21:39:48.110Z,11.00
2023-02-17T21:42:37.460Z,13.50
2023-02-17T21:45:04.709Z,10.50
2023-02-17T21:47:32.682Z,10.00
2023-02-17T21:50:00.738Z,12.75
2023-02-17T21:52:28.694Z,14.50
2023-02-17T21:54:57.077Z,15.75
2023-02-17T21:57:25.491Z,7.50
2023-02-17T21:59:53.699Z,11.50
2023-02-17T22:02:21.430Z,16.50
2023-02-17T22:04:49.399Z,12.00
2023-02-17T22:07:17.307Z,15.00
2023-02-17T22:09:45.186Z,10.00
2023-02-17T22:12:13.109Z,13.00
2023-02-17T22:14:41.041Z,9.00
2023-02-17T22:17:09.178Z,11.50
2023-02-17T22:19:37.333Z,13.50
2023-02-17T22:22:05.753Z,14.00
2023-02-17T22:24:34.025Z,7.00
2023-02-17T22:27:02.024Z,12.75
2023-02-17T22:29:29.874Z,17.00
2023-02-17T22:31:58.003Z,12.25
2023-02-17T22:34:28.529Z,13.50
2023-02-17T22:36:56.406Z,10.00
2023-02-17T22:39:24.664Z,8.50
2023-02-17T22:41:52.696Z,12.25
2023-02-17T22:44:20.612Z,11.00
2023-02-17T22:46:48.775Z,9.25
2023-02-17T22:49:16.682Z,12.75
2023-02-17T22:51:44.435Z,14.50
2023-02-17T22:54:12.463Z,12.75
2023-02-17T22:56:40.341Z,12.50
2023-02-17T22:59:08.473Z,15.75
2023-02-17T23:01:36.557Z,13.00
2023-02-17T23:04:04.411Z,15.00
2023-02-17T23:06:32.395Z,10.50
2023-02-17T23:09:00.288Z,12.50
2023-02-17T23:11:46.033Z,12.25
2023-02-17T23:14:13.799Z,5.00
2023-02-17T23:16:41.586Z,12.50
2023-02-17T23:19:09.479Z,12.50
2023-02-17T23:21:37.508Z,14.50
2023-02-17T23:24:05.515Z,16.50
2023-02-17T23:26:33.363Z,16.00
2023-02-17T23:29:01.026Z,13.00
2023-02-17T23:31:28.873Z,14.50
2023-02-17T23:33:56.613Z,12.75
2023-02-17T23:36:24.699Z,12.50
2023-02-17T23:38:52.542Z,13.00
2023-02-17T23:41:20.206Z,14.00
2023-02-17T23:43:48.286Z,11.50
2023-02-17T23:46:15.912Z,15.00
2023-02-17T23:48:43.938Z,15.25
2023-02-17T23:51:11.562Z,15.25
2023-02-17T23:53:39.213Z,14.75
2023-02-17T23:56:07.303Z,12.25
2023-02-17T23:58:35.193Z,13.75
